sensor_id;sensor_type;location;lat;lon;timestamp;pressure;altitude;pressure_sealevel;temperature;humidity
45255;BME280;30989;52.078;21.014;2023-04-25T00:01:21;166681.09;;;11.15;88.65
45255;BME280;30989;52.078;21.014;2023-04-25T00:03:47;166675.75;;;11.13;89.25
45255;BME280;30989;52.078;21.014;2023-04-25T00:06:13;166667.72;;;11.10;90.10
45255;BME280;30989;52.078;21.014;2023-04-25T00:08:39;166666.38;;;11.10;89.65
45255;BME280;30989;52.078;21.014;2023-04-25T00:11:05;166657.00;;;11.06;89.55
45255;BME280;30989;52.078;21.014;2023-04-25T00:13:30;166667.72;;;11.10;89.95
45255;BME280;30989;52.078;21.014;2023-04-25T00:15:55;166675.75;;;11.13;89.87
45255;BME280;30989;52.078;21.014;2023-04-25T00:18:25;166673.06;;;11.12;90.14
45255;BME280;30989;52.078;21.014;2023-04-25T00:20:53;166678.44;;;11.14;89.88
45255;BME280;30989;52.078;21.014;2023-04-25T00:23:19;166661.00;;;11.08;90.14
45255;BME280;30989;52.078;21.014;2023-04-25T00:25:45;166674.41;;;11.13;91.65
45255;BME280;30989;52.078;21.014;2023-04-25T00:28:11;166646.28;;;11.02;92.01
45255;BME280;30989;52.078;21.014;2023-04-25T00:30:37;166651.63;;;11.04;91.03
45255;BME280;30989;52.078;21.014;2023-04-25T00:33:02;166643.59;;;11.01;91.48
45255;BME280;30989;52.078;21.014;2023-04-25T00:35:28;166646.28;;;11.02;92.89
45255;BME280;30989;52.078;21.014;2023-04-25T00:37:54;166630.19;;;10.96;92.56
45255;BME280;30989;52.078;21.014;2023-04-25T00:40:20;166626.19;;;10.94;92.92
45255;BME280;30989;52.078;21.014;2023-04-25T00:42:47;166622.16;;;10.93;92.34
45255;BME280;30989;52.078;21.014;2023-04-25T00:45:13;166612.78;;;10.89;92.63
45255;BME280;30989;52.078;21.014;2023-04-25T00:47:42;166584.66;;;10.79;92.88
45255;BME280;30989;52.078;21.014;2023-04-25T00:50:08;166595.38;;;10.83;92.94
45255;BME280;30989;52.078;21.014;2023-04-25T00:52:34;166600.72;;;10.85;92.77
45255;BME280;30989;52.078;21.014;2023-04-25T00:55:00;166581.97;;;10.78;93.72
45255;BME280;30989;52.078;21.014;2023-04-25T00:57:26;166577.97;;;10.76;94.11
45255;BME280;30989;52.078;21.014;2023-04-25T00:59:52;166573.94;;;10.75;95.24
45255;BME280;30989;52.078;21.014;2023-04-25T01:02:19;166555.19;;;10.68;94.83
45255;BME280;30989;52.078;21.014;2023-04-25T01:04:46;166541.78;;;10.62;95.07
45255;BME280;30989;52.078;21.014;2023-04-25T01:07:12;166532.41;;;10.59;95.85
45255;BME280;30989;52.078;21.014;2023-04-25T01:09:38;166523.03;;;10.55;96.69
45255;BME280;30989;52.078;21.014;2023-04-25T01:12:04;166515.00;;;10.52;98.56
45255;BME280;30989;52.078;21.014;2023-04-25T01:14:29;166509.66;;;10.50;96.78
45255;BME280;30989;52.078;21.014;2023-04-25T01:16:55;166489.56;;;10.43;97.67
45255;BME280;30989;52.078;21.014;2023-04-25T01:19:21;166481.47;;;10.40;98.76
45255;BME280;30989;52.078;21.014;2023-04-25T01:21:46;166465.41;;;10.33;98.51
45255;BME280;30989;52.078;21.014;2023-04-25T01:24:12;166464.06;;;10.33;99.62
45255;BME280;30989;52.078;21.014;2023-04-25T01:26:39;166448.00;;;10.27;99.55
45255;BME280;30989;52.078;21.014;2023-04-25T01:29:07;166439.97;;;10.24;99.84
45255;BME280;30989;52.078;21.014;2023-04-25T01:31:34;166442.63;;;10.25;100.00
45255;BME280;30989;52.078;21.014;2023-04-25T01:34:00;166431.94;;;10.21;100.00
45255;BME280;30989;52.078;21.014;2023-04-25T01:36:28;166426.53;;;10.19;100.00
45255;BME280;30989;52.078;21.014;2023-04-25T01:38:53;166422.50;;;10.17;100.00
45255;BME280;30989;52.078;21.014;2023-04-25T01:41:21;166423.84;;;10.18;100.00
45255;BME280;30989;52.078;21.014;2023-04-25T01:43:48;166419.81;;;10.16;100.00
45255;BME280;30989;52.078;21.014;2023-04-25T01:46:14;166410.44;;;10.13;100.00
45255;BME280;30989;52.078;21.014;2023-04-25T01:48:39;166418.50;;;10.16;100.00
45255;BME280;30989;52.078;21.014;2023-04-25T01:51:06;166410.44;;;10.13;100.00
45255;BME280;30989;52.078;21.014;2023-04-25T01:53:31;166397.06;;;10.08;100.00
45255;BME280;30989;52.078;21.014;2023-04-25T01:55:58;166410.44;;;10.13;100.00
45255;BME280;30989;52.078;21.014;2023-04-25T01:58:27;166407.78;;;10.12;100.00
45255;BME280;30989;52.078;21.014;2023-04-25T02:00:58;166409.09;;;10.12;100.00
45255;BME280;30989;52.078;21.014;2023-04-25T02:03:29;166413.13;;;10.14;100.00
45255;BME280;30989;52.078;21.014;2023-04-25T02:05:56;166407.78;;;10.12;100.00
45255;BME280;30989;52.078;21.014;2023-04-25T02:08:21;166422.50;;;10.17;100.00
45255;BME280;30989;52.078;21.014;2023-04-25T02:10:47;166423.84;;;10.18;100.00
45255;BME280;30989;52.078;21.014;2023-04-25T02:13:16;166427.84;;;10.19;100.00
45255;BME280;30989;52.078;21.014;2023-04-25T02:15:53;166434.59;;;10.22;100.00
45255;BME280;30989;52.078;21.014;2023-04-25T02:18:19;166427.84;;;10.19;100.00
45255;BME280;30989;52.078;21.014;2023-04-25T02:20:46;166429.25;;;10.20;100.00
45255;BME280;30989;52.078;21.014;2023-04-25T02:23:12;166419.81;;;10.16;100.00
45255;BME280;30989;52.078;21.014;2023-04-25T02:25:38;166426.53;;;10.19;100.00
45255;BME280;30989;52.078;21.014;2023-04-25T02:28:03;166425.19;;;10.18;100.00
45255;BME280;30989;52.078;21.014;2023-04-25T02:30:29;166394.38;;;10.07;100.00
45255;BME280;30989;52.078;21.014;2023-04-25T02:32:55;166421.16;;;10.17;100.00
45255;BME280;30989;52.078;21.014;2023-04-25T02:35:21;166418.50;;;10.16;100.00
45255;BME280;30989;52.078;21.014;2023-04-25T02:37:47;166421.16;;;10.17;100.00
45255;BME280;30989;52.078;21.014;2023-04-25T02:40:12;166415.81;;;10.15;100.00
45255;BME280;30989;52.078;21.014;2023-04-25T02:42:38;166426.53;;;10.19;100.00
45255;BME280;30989;52.078;21.014;2023-04-25T02:45:03;166433.25;;;10.21;100.00
45255;BME280;30989;52.078;21.014;2023-04-25T02:47:30;166426.53;;;10.19;100.00
45255;BME280;30989;52.078;21.014;2023-04-25T02:49:55;166426.53;;;10.19;100.00
45255;BME280;30989;52.078;21.014;2023-04-25T02:52:21;166446.66;;;10.26;100.00
45255;BME280;30989;52.078;21.014;2023-04-25T02:54:54;166442.63;;;10.25;100.00
45255;BME280;30989;52.078;21.014;2023-04-25T02:57:19;166452.00;;;10.28;100.00
45255;BME280;30989;52.078;21.014;2023-04-25T02:59:45;166450.69;;;10.28;100.00
45255;BME280;30989;52.078;21.014;2023-04-25T03:02:10;166456.03;;;10.30;100.00
45255;BME280;30989;52.078;21.014;2023-04-25T03:04:36;166456.03;;;10.30;100.00
45255;BME280;30989;52.078;21.014;2023-04-25T03:07:01;166452.00;;;10.28;100.00
45255;BME280;30989;52.078;21.014;2023-04-25T03:09:27;166461.38;;;10.32;100.00
45255;BME280;30989;52.078;21.014;2023-04-25T03:11:53;166458.72;;;10.31;100.00
45255;BME280;30989;52.078;21.014;2023-04-25T03:14:19;166464.06;;;10.33;100.00
45255;BME280;30989;52.078;21.014;2023-04-25T03:16:44;166466.75;;;10.34;100.00
45255;BME280;30989;52.078;21.014;2023-04-25T03:19:10;166461.38;;;10.32;100.00
45255;BME280;30989;52.078;21.014;2023-04-25T03:21:36;166461.38;;;10.32;100.00
45255;BME280;30989;52.078;21.014;2023-04-25T03:24:03;166462.72;;;10.32;100.00
45255;BME280;30989;52.078;21.014;2023-04-25T03:26:30;166464.06;;;10.33;100.00
45255;BME280;30989;52.078;21.014;2023-04-25T03:28:55;166469.41;;;10.35;100.00
45255;BME280;30989;52.078;21.014;2023-04-25T03:31:21;166456.03;;;10.30;100.00
45255;BME280;30989;52.078;21.014;2023-04-25T03:33:47;166485.53;;;10.41;100.00
45255;BME280;30989;52.078;21.014;2023-04-25T03:36:13;166488.22;;;10.42;100.00
45255;BME280;30989;52.078;21.014;2023-04-25T03:38:39;166473.44;;;10.37;100.00
45255;BME280;30989;52.078;21.014;2023-04-25T03:41:07;166500.28;;;10.47;100.00
45255;BME280;30989;52.078;21.014;2023-04-25T03:43:39;166501.59;;;10.47;100.00
45255;BME280;30989;52.078;21.014;2023-04-25T03:46:09;166502.94;;;10.48;100.00
45255;BME280;30989;52.078;21.014;2023-04-25T03:48:34;166511.00;;;10.51;100.00
45255;BME280;30989;52.078;21.014;2023-04-25T03:51:00;166504.28;;;10.48;100.00
45255;BME280;30989;52.078;21.014;2023-04-25T03:53:26;166525.72;;;10.56;100.00
45255;BME280;30989;52.078;21.014;2023-04-25T03:56:24;166555.19;;;10.68;100.00
45255;BME280;30989;52.078;21.014;2023-04-25T03:58:57;166571.25;;;10.74;100.00
45255;BME280;30989;52.078;21.014;2023-04-25T04:01:24;166587.34;;;10.80;100.00
45255;BME280;30989;52.078;21.014;2023-04-25T04:03:51;166592.69;;;10.82;100.00
45255;BME280;30989;52.078;21.014;2023-04-25T04:06:17;166592.69;;;10.82;100.00
45255;BME280;30989;52.078;21.014;2023-04-25T04:08:46;166604.75;;;10.86;100.00
45255;BME280;30989;52.078;21.014;2023-04-25T04:11:14;166598.03;;;10.84;100.00
45255;BME280;30989;52.078;21.014;2023-04-25T04:13:41;166606.09;;;10.87;100.00
45255;BME280;30989;52.078;21.014;2023-04-25T04:16:07;166594.03;;;10.82;100.00
45255;BME280;30989;52.078;21.014;2023-04-25T04:18:33;166590.00;;;10.81;100.00
45255;BME280;30989;52.078;21.014;2023-04-25T04:20:59;166598.03;;;10.84;100.00
45255;BME280;30989;52.078;21.014;2023-04-25T04:23:27;166600.72;;;10.85;100.00
45255;BME280;30989;52.078;21.014;2023-04-25T04:25:54;166603.41;;;10.86;100.00
45255;BME280;30989;52.078;21.014;2023-04-25T04:28:33;166595.38;;;10.83;100.00
45255;BME280;30989;52.078;21.014;2023-04-25T04:31:04;166592.69;;;10.82;100.00
45255;BME280;30989;52.078;21.014;2023-04-25T04:33:30;166564.56;;;10.71;100.00
45255;BME280;30989;52.078;21.014;2023-04-25T04:36:00;166587.34;;;10.80;100.00
45255;BME280;30989;52.078;21.014;2023-04-25T04:38:26;166571.25;;;10.74;100.00
45255;BME280;30989;52.078;21.014;2023-04-25T04:40:55;166587.34;;;10.80;100.00
45255;BME280;30989;52.078;21.014;2023-04-25T04:43:31;166573.94;;;10.75;100.00
45255;BME280;30989;52.078;21.014;2023-04-25T04:46:21;166571.25;;;10.74;100.00
45255;BME280;30989;52.078;21.014;2023-04-25T04:49:11;166564.56;;;10.71;100.00
45255;BME280;30989;52.078;21.014;2023-04-25T04:51:41;166560.53;;;10.70;100.00
45255;BME280;30989;52.078;21.014;2023-04-25T04:54:34;166560.53;;;10.70;100.00
45255;BME280;30989;52.078;21.014;2023-04-25T04:57:23;166555.19;;;10.68;100.00
45255;BME280;30989;52.078;21.014;2023-04-25T05:00:11;166527.06;;;10.57;100.00
45255;BME280;30989;52.078;21.014;2023-04-25T05:03:00;166496.25;;;10.45;100.00
45255;BME280;30989;52.078;21.014;2023-04-25T05:05:48;166481.47;;;10.40;100.00
45255;BME280;30989;52.078;21.014;2023-04-25T05:08:34;166474.78;;;10.37;100.00
45255;BME280;30989;52.078;21.014;2023-04-25T05:11:09;166454.69;;;10.29;100.00
45255;BME280;30989;52.078;21.014;2023-04-25T05:14:01;166456.03;;;10.30;100.00
45255;BME280;30989;52.078;21.014;2023-04-25T05:16:52;166443.97;;;10.25;100.00
45255;BME280;30989;52.078;21.014;2023-04-25T05:19:47;166434.59;;;10.22;100.00
45255;BME280;30989;52.078;21.014;2023-04-25T05:22:23;166427.84;;;10.19;100.00
45255;BME280;30989;52.078;21.014;2023-04-25T05:25:10;166441.28;;;10.24;100.00
45255;BME280;30989;52.078;21.014;2023-04-25T05:28:14;166453.34;;;10.29;100.00
45255;BME280;30989;52.078;21.014;2023-04-25T05:30:57;166453.34;;;10.29;100.00
45255;BME280;30989;52.078;21.014;2023-04-25T05:33:43;166452.00;;;10.28;100.00
45255;BME280;30989;52.078;21.014;2023-04-25T05:36:08;166448.00;;;10.27;100.00
45255;BME280;30989;52.078;21.014;2023-04-25T05:38:34;166415.81;;;10.15;100.00
45255;BME280;30989;52.078;21.014;2023-04-25T05:41:18;166425.19;;;10.18;100.00
45255;BME280;30989;52.078;21.014;2023-04-25T05:43:48;166410.44;;;10.13;100.00
45255;BME280;30989;52.078;21.014;2023-04-25T05:46:34;166415.81;;;10.15;100.00
45255;BME280;30989;52.078;21.014;2023-04-25T05:49:19;166411.78;;;10.13;100.00
45255;BME280;30989;52.078;21.014;2023-04-25T05:52:03;166409.09;;;10.12;100.00
45255;BME280;30989;52.078;21.014;2023-04-25T05:54:46;166421.16;;;10.17;100.00
45255;BME280;30989;52.078;21.014;2023-04-25T05:57:23;166425.19;;;10.18;100.00
45255;BME280;30989;52.078;21.014;2023-04-25T05:59:49;166431.94;;;10.21;100.00
45255;BME280;30989;52.078;21.014;2023-04-25T06:02:17;166418.50;;;10.16;100.00
45255;BME280;30989;52.078;21.014;2023-04-25T06:04:43;166397.06;;;10.08;100.00
45255;BME280;30989;52.078;21.014;2023-04-25T06:07:08;166372.97;;;9.98;100.00
45255;BME280;30989;52.078;21.014;2023-04-25T06:09:34;166346.19;;;9.88;100.00
45255;BME280;30989;52.078;21.014;2023-04-25T06:12:00;166319.41;;;9.78;100.00
45255;BME280;30989;52.078;21.014;2023-04-25T06:14:28;166303.34;;;9.72;100.00
45255;BME280;30989;52.078;21.014;2023-04-25T06:16:53;166279.25;;;9.63;100.00
45255;BME280;30989;52.078;21.014;2023-04-25T06:19:19;166287.28;;;9.66;100.00
45255;BME280;30989;52.078;21.014;2023-04-25T06:21:44;166281.94;;;9.64;100.00
45255;BME280;30989;52.078;21.014;2023-04-25T06:24:10;166300.66;;;9.71;100.00
45255;BME280;30989;52.078;21.014;2023-04-25T06:26:36;166319.41;;;9.78;100.00
45255;BME280;30989;52.078;21.014;2023-04-25T06:29:02;166315.41;;;9.77;100.00
45255;BME280;30989;52.078;21.014;2023-04-25T06:31:28;166348.88;;;9.89;100.00
45255;BME280;30989;52.078;21.014;2023-04-25T06:33:55;166364.94;;;9.95;100.00
45255;BME280;30989;52.078;21.014;2023-04-25T06:36:22;166399.75;;;10.09;100.00
45255;BME280;30989;52.078;21.014;2023-04-25T06:38:54;166435.94;;;10.22;100.00
45255;BME280;30989;52.078;21.014;2023-04-25T06:41:22;166449.34;;;10.27;100.00
45255;BME280;30989;52.078;21.014;2023-04-25T06:43:47;166450.69;;;10.28;100.00
45255;BME280;30989;52.078;21.014;2023-04-25T06:46:32;166437.28;;;10.23;100.00
45255;BME280;30989;52.078;21.014;2023-04-25T06:48:58;166399.75;;;10.09;100.00
45255;BME280;30989;52.078;21.014;2023-04-25T06:51:24;166399.75;;;10.09;100.00
45255;BME280;30989;52.078;21.014;2023-04-25T06:53:51;166372.97;;;9.98;100.00
45255;BME280;30989;52.078;21.014;2023-04-25T06:56:25;166367.59;;;9.96;100.00
45255;BME280;30989;52.078;21.014;2023-04-25T06:59:04;166372.97;;;9.98;100.00
45255;BME280;30989;52.078;21.014;2023-04-25T07:01:35;166378.31;;;10.00;100.00
45255;BME280;30989;52.078;21.014;2023-04-25T07:04:04;166390.38;;;10.05;100.00
45255;BME280;30989;52.078;21.014;2023-04-25T07:06:32;166387.69;;;10.04;100.00
45255;BME280;30989;52.078;21.014;2023-04-25T07:08:57;166398.41;;;10.08;100.00
45255;BME280;30989;52.078;21.014;2023-04-25T07:11:23;166405.09;;;10.11;100.00
45255;BME280;30989;52.078;21.014;2023-04-25T07:13:49;166421.16;;;10.17;100.00
45255;BME280;30989;52.078;21.014;2023-04-25T07:16:16;166443.97;;;10.25;100.00
45255;BME280;30989;52.078;21.014;2023-04-25T07:18:41;166457.38;;;10.30;100.00
45255;BME280;30989;52.078;21.014;2023-04-25T07:21:08;166482.88;;;10.40;100.00
45255;BME280;30989;52.078;21.014;2023-04-25T07:23:35;166482.88;;;10.40;100.00
45255;BME280;30989;52.078;21.014;2023-04-25T07:26:07;166488.22;;;10.42;100.00
45255;BME280;30989;52.078;21.014;2023-04-25T07:28:33;166472.09;;;10.36;100.00
45255;BME280;30989;52.078;21.014;2023-04-25T07:30:58;166453.34;;;10.29;100.00
45255;BME280;30989;52.078;21.014;2023-04-25T07:33:24;166425.19;;;10.18;100.00
45255;BME280;30989;52.078;21.014;2023-04-25T07:35:49;166405.09;;;10.11;100.00
45255;BME280;30989;52.078;21.014;2023-04-25T07:38:16;166383.66;;;10.02;100.00
45255;BME280;30989;52.078;21.014;2023-04-25T07:40:42;166372.97;;;9.98;100.00
45255;BME280;30989;52.078;21.014;2023-04-25T07:43:10;166376.97;;;10.00;100.00
45255;BME280;30989;52.078;21.014;2023-04-25T07:45:48;166387.69;;;10.04;100.00
45255;BME280;30989;52.078;21.014;2023-04-25T07:48:18;166378.31;;;10.00;100.00
45255;BME280;30989;52.078;21.014;2023-04-25T07:50:45;166358.22;;;9.93;100.00
45255;BME280;30989;52.078;21.014;2023-04-25T07:53:11;166354.22;;;9.91;100.00
45255;BME280;30989;52.078;21.014;2023-04-25T07:55:44;166354.22;;;9.91;100.00
45255;BME280;30989;52.078;21.014;2023-04-25T07:58:15;166355.56;;;9.92;100.00
45255;BME280;30989;52.078;21.014;2023-04-25T08:00:47;166364.94;;;9.95;100.00
45255;BME280;30989;52.078;21.014;2023-04-25T08:03:33;166360.91;;;9.94;100.00
45255;BME280;30989;52.078;21.014;2023-04-25T08:06:00;166343.50;;;9.87;100.00
45255;BME280;30989;52.078;21.014;2023-04-25T08:08:29;166315.41;;;9.77;100.00
45255;BME280;30989;52.078;21.014;2023-04-25T08:10:55;166312.72;;;9.76;100.00
45255;BME280;30989;52.078;21.014;2023-04-25T08:13:20;166296.66;;;9.69;100.00
45255;BME280;30989;52.078;21.014;2023-04-25T08:15:46;166289.97;;;9.67;100.00
45255;BME280;30989;52.078;21.014;2023-04-25T08:18:12;166280.59;;;9.63;100.00
45255;BME280;30989;52.078;21.014;2023-04-25T08:20:37;166272.56;;;9.60;100.00
45255;BME280;30989;52.078;21.014;2023-04-25T08:23:05;166248.47;;;9.51;100.00
45255;BME280;30989;52.078;21.014;2023-04-25T08:25:54;166229.72;;;9.44;100.00
45255;BME280;30989;52.078;21.014;2023-04-25T08:28:23;166219.03;;;9.40;100.00
45255;BME280;30989;52.078;21.014;2023-04-25T08:30:49;166224.38;;;9.42;100.00
45255;BME280;30989;52.078;21.014;2023-04-25T08:33:18;166221.69;;;9.41;100.00
45255;BME280;30989;52.078;21.014;2023-04-25T08:36:00;166224.38;;;9.42;100.00
45255;BME280;30989;52.078;21.014;2023-04-25T08:38:26;166209.66;;;9.36;100.00
45255;BME280;30989;52.078;21.014;2023-04-25T08:40:53;166196.28;;;9.31;100.00
45255;BME280;30989;52.078;21.014;2023-04-25T08:43:20;166200.28;;;9.33;100.00
45255;BME280;30989;52.078;21.014;2023-04-25T08:45:47;166180.22;;;9.25;100.00
45255;BME280;30989;52.078;21.014;2023-04-25T08:48:23;166153.47;;;9.15;100.00
45255;BME280;30989;52.078;21.014;2023-04-25T08:50:51;166138.72;;;9.10;100.00
45255;BME280;30989;52.078;21.014;2023-04-25T08:53:28;166138.72;;;9.10;100.00
45255;BME280;30989;52.078;21.014;2023-04-25T08:55:58;166140.06;;;9.10;100.00
45255;BME280;30989;52.078;21.014;2023-04-25T08:58:24;166137.41;;;9.09;100.00
45255;BME280;30989;52.078;21.014;2023-04-25T09:00:51;166125.34;;;9.04;100.00
45255;BME280;30989;52.078;21.014;2023-04-25T09:03:19;166107.97;;;8.98;100.00
45255;BME280;30989;52.078;21.014;2023-04-25T09:05:47;166142.75;;;9.11;100.00
45255;BME280;30989;52.078;21.014;2023-04-25T09:08:14;166160.16;;;9.18;100.00
45255;BME280;30989;52.078;21.014;2023-04-25T09:10:41;166164.16;;;9.19;100.00
45255;BME280;30989;52.078;21.014;2023-04-25T09:13:12;166172.19;;;9.22;100.00
45255;BME280;30989;52.078;21.014;2023-04-25T09:16:13;166158.81;;;9.17;100.00
45255;BME280;30989;52.078;21.014;2023-04-25T09:19:01;166118.66;;;9.02;100.00
45255;BME280;30989;52.078;21.014;2023-04-25T09:21:27;166118.66;;;9.02;100.00
45255;BME280;30989;52.078;21.014;2023-04-25T09:23:52;166107.97;;;8.98;100.00
45255;BME280;30989;52.078;21.014;2023-04-25T09:26:20;166140.06;;;9.10;100.00
45255;BME280;30989;52.078;21.014;2023-04-25T09:28:46;166189.59;;;9.29;100.00
45255;BME280;30989;52.078;21.014;2023-04-25T09:31:24;166209.66;;;9.36;100.00
45255;BME280;30989;52.078;21.014;2023-04-25T09:33:59;166232.41;;;9.45;100.00
45255;BME280;30989;52.078;21.014;2023-04-25T09:36:27;166241.78;;;9.49;100.00
45255;BME280;30989;52.078;21.014;2023-04-25T09:39:14;166260.50;;;9.56;100.00
45255;BME280;30989;52.078;21.014;2023-04-25T09:41:54;166249.81;;;9.52;100.00
45255;BME280;30989;52.078;21.014;2023-04-25T09:44:23;166209.66;;;9.36;100.00
45255;BME280;30989;52.078;21.014;2023-04-25T09:46:50;166205.63;;;9.35;100.00
45255;BME280;30989;52.078;21.014;2023-04-25T09:49:22;166188.25;;;9.28;100.00
45255;BME280;30989;52.078;21.014;2023-04-25T09:52:09;166188.25;;;9.28;100.00
45255;BME280;30989;52.078;21.014;2023-04-25T09:54:53;166189.59;;;9.29;100.00
45255;BME280;30989;52.078;21.014;2023-04-25T09:57:25;166180.22;;;9.25;100.00
45255;BME280;30989;52.078;21.014;2023-04-25T09:59:54;166168.16;;;9.21;100.00
45255;BME280;30989;52.078;21.014;2023-04-25T10:02:23;166176.19;;;9.24;100.00
45255;BME280;30989;52.078;21.014;2023-04-25T10:04:54;166190.91;;;9.29;100.00
45255;BME280;30989;52.078;21.014;2023-04-25T10:07:26;166180.22;;;9.25;100.00
45255;BME280;30989;52.078;21.014;2023-04-25T10:09:59;166201.63;;;9.33;100.00
45255;BME280;30989;52.078;21.014;2023-04-25T10:12:26;166197.63;;;9.32;100.00
45255;BME280;30989;52.078;21.014;2023-04-25T10:14:52;166197.63;;;9.32;100.00
45255;BME280;30989;52.078;21.014;2023-04-25T10:17:19;166206.97;;;9.35;100.00
45255;BME280;30989;52.078;21.014;2023-04-25T10:19:47;166202.97;;;9.34;100.00
45255;BME280;30989;52.078;21.014;2023-04-25T10:22:32;166212.34;;;9.37;100.00
45255;BME280;30989;52.078;21.014;2023-04-25T10:25:00;166227.06;;;9.43;100.00
45255;BME280;30989;52.078;21.014;2023-04-25T10:27:29;166232.41;;;9.45;100.00
45255;BME280;30989;52.078;21.014;2023-04-25T10:30:13;166249.81;;;9.52;100.00
45255;BME280;30989;52.078;21.014;2023-04-25T10:32:42;166249.81;;;9.52;100.00
45255;BME280;30989;52.078;21.014;2023-04-25T10:35:22;166243.13;;;9.49;100.00
45255;BME280;30989;52.078;21.014;2023-04-25T10:38:04;166260.50;;;9.56;100.00
45255;BME280;30989;52.078;21.014;2023-04-25T10:40:33;166269.88;;;9.59;100.00
45255;BME280;30989;52.078;21.014;2023-04-25T10:45:55;166247.13;;;9.51;100.00
45255;BME280;30989;52.078;21.014;2023-04-25T10:48:31;166271.22;;;9.60;100.00
45255;BME280;30989;52.078;21.014;2023-04-25T10:51:20;166295.31;;;9.69;100.00
45255;BME280;30989;52.078;21.014;2023-04-25T10:56:22;166303.34;;;9.72;100.00
45255;BME280;30989;52.078;21.014;2023-04-25T10:58:48;166315.41;;;9.77;100.00
45255;BME280;30989;52.078;21.014;2023-04-25T11:01:15;166314.06;;;9.76;100.00
45255;BME280;30989;52.078;21.014;2023-04-25T11:03:45;166315.41;;;9.77;100.00
45255;BME280;30989;52.078;21.014;2023-04-25T11:06:22;166327.44;;;9.81;100.00
45255;BME280;30989;52.078;21.014;2023-04-25T11:08:50;166359.56;;;9.93;100.00
45255;BME280;30989;52.078;21.014;2023-04-25T11:11:17;166374.31;;;9.99;100.00
45255;BME280;30989;52.078;21.014;2023-04-25T11:13:43;166383.66;;;10.02;100.00
45255;BME280;30989;52.078;21.014;2023-04-25T11:16:09;166394.38;;;10.07;100.00
45255;BME280;30989;52.078;21.014;2023-04-25T11:18:34;166405.09;;;10.11;100.00
45255;BME280;30989;52.078;21.014;2023-04-25T11:21:02;166450.69;;;10.28;100.00
45255;BME280;30989;52.078;21.014;2023-04-25T11:23:29;166458.72;;;10.31;100.00
45255;BME280;30989;52.078;21.014;2023-04-25T11:25:55;166474.78;;;10.37;100.00
45255;BME280;30989;52.078;21.014;2023-04-25T11:28:21;166472.09;;;10.36;100.00
45255;BME280;30989;52.078;21.014;2023-04-25T11:30:50;166488.22;;;10.42;100.00
45255;BME280;30989;52.078;21.014;2023-04-25T11:33:16;166480.13;;;10.39;100.00
45255;BME280;30989;52.078;21.014;2023-04-25T11:35:42;166485.53;;;10.41;100.00
45255;BME280;30989;52.078;21.014;2023-04-25T11:38:07;166490.91;;;10.43;100.00
45255;BME280;30989;52.078;21.014;2023-04-25T11:40:35;166511.00;;;10.51;100.00
45255;BME280;30989;52.078;21.014;2023-04-25T11:43:00;166521.69;;;10.55;100.00
45255;BME280;30989;52.078;21.014;2023-04-25T11:45:26;166520.34;;;10.54;100.00
45255;BME280;30989;52.078;21.014;2023-04-25T11:47:52;166517.69;;;10.53;100.00
45255;BME280;30989;52.078;21.014;2023-04-25T11:50:18;166509.66;;;10.50;100.00
45255;BME280;30989;52.078;21.014;2023-04-25T11:52:45;166504.28;;;10.48;100.00
45255;BME280;30989;52.078;21.014;2023-04-25T11:55:19;166501.59;;;10.47;100.00
45255;BME280;30989;52.078;21.014;2023-04-25T11:57:47;166494.91;;;10.45;100.00
45255;BME280;30989;52.078;21.014;2023-04-25T12:00:18;166500.28;;;10.47;100.00
45255;BME280;30989;52.078;21.014;2023-04-25T12:03:03;166482.88;;;10.40;100.00
45255;BME280;30989;52.078;21.014;2023-04-25T12:05:30;166494.91;;;10.45;100.00
45255;BME280;30989;52.078;21.014;2023-04-25T12:08:09;166454.69;;;10.29;100.00
45255;BME280;30989;52.078;21.014;2023-04-25T12:10:40;166506.97;;;10.49;100.00
45255;BME280;30989;52.078;21.014;2023-04-25T12:13:23;166517.69;;;10.53;100.00
45255;BME280;30989;52.078;21.014;2023-04-25T12:15:49;166517.69;;;10.53;100.00
45255;BME280;30989;52.078;21.014;2023-04-25T12:18:18;166525.72;;;10.56;100.00
45255;BME280;30989;52.078;21.014;2023-04-25T12:20:44;166535.09;;;10.60;100.00
45255;BME280;30989;52.078;21.014;2023-04-25T12:23:09;166531.06;;;10.58;100.00
45255;BME280;30989;52.078;21.014;2023-04-25T12:25:40;166515.00;;;10.52;100.00
45255;BME280;30989;52.078;21.014;2023-04-25T12:28:20;166496.25;;;10.45;100.00
45255;BME280;30989;52.078;21.014;2023-04-25T12:31:01;166482.88;;;10.40;100.00
45255;BME280;30989;52.078;21.014;2023-04-25T12:33:35;166474.78;;;10.37;100.00
45255;BME280;30989;52.078;21.014;2023-04-25T12:36:03;166465.41;;;10.33;100.00
45255;BME280;30989;52.078;21.014;2023-04-25T12:38:40;166457.38;;;10.30;100.00
45255;BME280;30989;52.078;21.014;2023-04-25T12:41:06;166460.03;;;10.31;100.00
45255;BME280;30989;52.078;21.014;2023-04-25T12:43:32;166449.34;;;10.27;100.00
45255;BME280;30989;52.078;21.014;2023-04-25T12:45:57;166458.72;;;10.31;100.00
45255;BME280;30989;52.078;21.014;2023-04-25T12:48:23;166458.72;;;10.31;100.00
45255;BME280;30989;52.078;21.014;2023-04-25T12:50:50;166434.59;;;10.22;100.00
45255;BME280;30989;52.078;21.014;2023-04-25T12:53:20;166450.69;;;10.28;100.00
45255;BME280;30989;52.078;21.014;2023-04-25T12:55:46;166450.69;;;10.28;100.00